sensor_id;sensor_type;location;lat;lon;timestamp;temperature;humidity
41876;DHT22;27555;50.808;4.402;2023-07-31T00:02:15;18.80;99.90
41876;DHT22;27555;50.808;4.402;2023-07-31T00:04:40;18.80;99.90
41876;DHT22;27555;50.808;4.402;2023-07-31T00:07:06;18.70;99.90
41876;DHT22;27555;50.808;4.402;2023-07-31T00:09:35;18.70;99.90
41876;DHT22;27555;50.808;4.402;2023-07-31T00:12:00;18.90;99.90
41876;DHT22;27555;50.808;4.402;2023-07-31T00:14:26;19.10;99.90
41876;DHT22;27555;50.808;4.402;2023-07-31T00:16:51;19.00;99.90
41876;DHT22;27555;50.808;4.402;2023-07-31T00:19:17;19.00;99.90
41876;DHT22;27555;50.808;4.402;2023-07-31T00:21:44;19.00;99.90
41876;DHT22;27555;50.808;4.402;2023-07-31T00:24:09;18.90;99.90
41876;DHT22;27555;50.808;4.402;2023-07-31T00:26:35;18.80;99.90
41876;DHT22;27555;50.808;4.402;2023-07-31T00:29:00;18.90;99.90
41876;DHT22;27555;50.808;4.402;2023-07-31T00:31:26;19.20;99.90
41876;DHT22;27555;50.808;4.402;2023-07-31T00:33:52;19.00;99.90
41876;DHT22;27555;50.808;4.402;2023-07-31T00:36:17;18.80;99.90
41876;DHT22;27555;50.808;4.402;2023-07-31T00:38:43;18.80;99.90
41876;DHT22;27555;50.808;4.402;2023-07-31T00:41:09;18.90;99.90
41876;DHT22;27555;50.808;4.402;2023-07-31T00:43:35;18.90;99.90
41876;DHT22;27555;50.808;4.402;2023-07-31T00:46:00;18.90;99.90
41876;DHT22;27555;50.808;4.402;2023-07-31T00:48:26;18.90;99.90
41876;DHT22;27555;50.808;4.402;2023-07-31T00:50:52;18.90;99.90
41876;DHT22;27555;50.808;4.402;2023-07-31T00:53:18;18.80;99.90
41876;DHT22;27555;50.808;4.402;2023-07-31T00:55:44;18.70;99.90
41876;DHT22;27555;50.808;4.402;2023-07-31T00:58:10;18.70;99.90
41876;DHT22;27555;50.808;4.402;2023-07-31T01:00:35;18.80;99.90
41876;DHT22;27555;50.808;4.402;2023-07-31T01:03:01;18.90;99.90
41876;DHT22;27555;50.808;4.402;2023-07-31T01:05:39;18.70;99.90
41876;DHT22;27555;50.808;4.402;2023-07-31T01:08:15;18.70;99.90
41876;DHT22;27555;50.808;4.402;2023-07-31T01:10:50;18.60;99.90
41876;DHT22;27555;50.808;4.402;2023-07-31T01:13:17;18.60;99.90
41876;DHT22;27555;50.808;4.402;2023-07-31T01:15:43;18.30;99.90
41876;DHT22;27555;50.808;4.402;2023-07-31T01:18:08;18.40;99.90
41876;DHT22;27555;50.808;4.402;2023-07-31T01:20:35;18.60;99.90
41876;DHT22;27555;50.808;4.402;2023-07-31T01:23:45;18.50;99.90
41876;DHT22;27555;50.808;4.402;2023-07-31T01:26:21;18.70;99.90
41876;DHT22;27555;50.808;4.402;2023-07-31T01:29:23;18.40;99.90
41876;DHT22;27555;50.808;4.402;2023-07-31T01:31:53;18.40;99.90
41876;DHT22;27555;50.808;4.402;2023-07-31T01:34:21;18.50;99.90
41876;DHT22;27555;50.808;4.402;2023-07-31T01:36:47;18.60;99.90
41876;DHT22;27555;50.808;4.402;2023-07-31T01:39:13;18.60;99.90
41876;DHT22;27555;50.808;4.402;2023-07-31T01:41:40;18.60;99.90
41876;DHT22;27555;50.808;4.402;2023-07-31T01:44:06;18.60;99.90
41876;DHT22;27555;50.808;4.402;2023-07-31T01:46:32;18.60;99.90
41876;DHT22;27555;50.808;4.402;2023-07-31T01:48:58;18.70;99.90
41876;DHT22;27555;50.808;4.402;2023-07-31T01:51:23;18.70;99.90
41876;DHT22;27555;50.808;4.402;2023-07-31T01:53:49;18.70;99.90
41876;DHT22;27555;50.808;4.402;2023-07-31T01:56:15;18.90;99.90
41876;DHT22;27555;50.808;4.402;2023-07-31T01:58:40;18.70;99.90
41876;DHT22;27555;50.808;4.402;2023-07-31T02:01:06;18.60;99.90
41876;DHT22;27555;50.808;4.402;2023-07-31T02:03:31;18.60;99.90
41876;DHT22;27555;50.808;4.402;2023-07-31T02:05:57;18.50;99.90
41876;DHT22;27555;50.808;4.402;2023-07-31T02:08:23;18.70;99.90
41876;DHT22;27555;50.808;4.402;2023-07-31T02:10:48;18.80;99.90
41876;DHT22;27555;50.808;4.402;2023-07-31T02:13:14;18.80;99.90
41876;DHT22;27555;50.808;4.402;2023-07-31T02:15:39;18.80;99.90
41876;DHT22;27555;50.808;4.402;2023-07-31T02:18:05;18.60;99.90
41876;DHT22;27555;50.808;4.402;2023-07-31T02:20:34;18.40;99.90
41876;DHT22;27555;50.808;4.402;2023-07-31T02:22:59;18.50;99.90
41876;DHT22;27555;50.808;4.402;2023-07-31T02:25:25;18.60;99.90
41876;DHT22;27555;50.808;4.402;2023-07-31T02:27:50;18.70;99.90
41876;DHT22;27555;50.808;4.402;2023-07-31T02:30:16;18.60;99.90
41876;DHT22;27555;50.808;4.402;2023-07-31T02:32:41;18.70;99.90
41876;DHT22;27555;50.808;4.402;2023-07-31T02:35:07;18.80;99.90
41876;DHT22;27555;50.808;4.402;2023-07-31T02:37:33;18.90;99.90
41876;DHT22;27555;50.808;4.402;2023-07-31T02:39:59;18.80;99.90
41876;DHT22;27555;50.808;4.402;2023-07-31T02:42:25;18.70;99.90
41876;DHT22;27555;50.808;4.402;2023-07-31T02:44:50;18.70;99.90
41876;DHT22;27555;50.808;4.402;2023-07-31T02:47:21;18.60;99.90
41876;DHT22;27555;50.808;4.402;2023-07-31T02:49:47;18.90;99.90
41876;DHT22;27555;50.808;4.402;2023-07-31T02:52:12;19.00;99.90
41876;DHT22;27555;50.808;4.402;2023-07-31T02:54:38;18.80;99.90
41876;DHT22;27555;50.808;4.402;2023-07-31T02:57:04;18.80;99.90
41876;DHT22;27555;50.808;4.402;2023-07-31T02:59:30;18.60;99.90
41876;DHT22;27555;50.808;4.402;2023-07-31T03:01:55;18.70;99.90
41876;DHT22;27555;50.808;4.402;2023-07-31T03:04:21;18.80;99.90
41876;DHT22;27555;50.808;4.402;2023-07-31T03:06:46;18.80;99.90
41876;DHT22;27555;50.808;4.402;2023-07-31T03:09:12;18.60;99.90
41876;DHT22;27555;50.808;4.402;2023-07-31T03:11:38;18.50;99.90
41876;DHT22;27555;50.808;4.402;2023-07-31T03:14:03;18.70;99.90
41876;DHT22;27555;50.808;4.402;2023-07-31T03:16:29;18.70;99.90
41876;DHT22;27555;50.808;4.402;2023-07-31T03:18:54;18.70;99.90
41876;DHT22;27555;50.808;4.402;2023-07-31T03:21:20;18.80;99.90
41876;DHT22;27555;50.808;4.402;2023-07-31T03:23:46;18.80;99.90
41876;DHT22;27555;50.808;4.402;2023-07-31T03:26:11;18.90;99.90
41876;DHT22;27555;50.808;4.402;2023-07-31T03:28:37;18.90;99.90
41876;DHT22;27555;50.808;4.402;2023-07-31T03:31:02;18.70;99.90
41876;DHT22;27555;50.808;4.402;2023-07-31T03:33:28;18.60;99.90
41876;DHT22;27555;50.808;4.402;2023-07-31T03:35:53;18.70;99.90
41876;DHT22;27555;50.808;4.402;2023-07-31T03:38:19;18.60;99.90
41876;DHT22;27555;50.808;4.402;2023-07-31T03:40:45;18.80;99.90
41876;DHT22;27555;50.808;4.402;2023-07-31T03:43:11;19.00;99.90
41876;DHT22;27555;50.808;4.402;2023-07-31T03:45:37;18.80;99.90
41876;DHT22;27555;50.808;4.402;2023-07-31T03:48:03;18.60;99.90
41876;DHT22;27555;50.808;4.402;2023-07-31T03:50:29;18.60;99.90
41876;DHT22;27555;50.808;4.402;2023-07-31T03:52:55;18.50;99.90
41876;DHT22;27555;50.808;4.402;2023-07-31T03:55:20;18.50;99.90
41876;DHT22;27555;50.808;4.402;2023-07-31T03:57:47;18.60;99.90
41876;DHT22;27555;50.808;4.402;2023-07-31T04:00:13;18.70;99.90
41876;DHT22;27555;50.808;4.402;2023-07-31T04:02:38;18.70;99.90
41876;DHT22;27555;50.808;4.402;2023-07-31T04:05:04;18.70;99.90
41876;DHT22;27555;50.808;4.402;2023-07-31T04:07:29;18.60;99.90
41876;DHT22;27555;50.808;4.402;2023-07-31T04:09:56;18.70;99.90
41876;DHT22;27555;50.808;4.402;2023-07-31T04:12:22;18.70;99.90
41876;DHT22;27555;50.808;4.402;2023-07-31T04:14:48;18.70;99.90
41876;DHT22;27555;50.808;4.402;2023-07-31T04:17:13;18.70;99.90
41876;DHT22;27555;50.808;4.402;2023-07-31T04:19:39;18.70;99.90
41876;DHT22;27555;50.808;4.402;2023-07-31T04:22:04;18.60;99.90
41876;DHT22;27555;50.808;4.402;2023-07-31T04:24:30;18.60;99.90
41876;DHT22;27555;50.808;4.402;2023-07-31T04:26:55;18.50;99.90
41876;DHT22;27555;50.808;4.402;2023-07-31T04:29:21;18.60;99.90
41876;DHT22;27555;50.808;4.402;2023-07-31T04:31:48;18.70;99.90
41876;DHT22;27555;50.808;4.402;2023-07-31T04:34:13;18.60;99.90
41876;DHT22;27555;50.808;4.402;2023-07-31T04:36:39;18.60;99.90
41876;DHT22;27555;50.808;4.402;2023-07-31T04:39:05;18.60;99.90
41876;DHT22;27555;50.808;4.402;2023-07-31T04:41:30;18.60;99.90
41876;DHT22;27555;50.808;4.402;2023-07-31T04:43:56;18.70;99.90
41876;DHT22;27555;50.808;4.402;2023-07-31T04:46:22;18.80;99.90
41876;DHT22;27555;50.808;4.402;2023-07-31T04:48:47;18.80;99.90
41876;DHT22;27555;50.808;4.402;2023-07-31T04:51:13;18.50;99.90
41876;DHT22;27555;50.808;4.402;2023-07-31T04:53:39;18.70;99.90
41876;DHT22;27555;50.808;4.402;2023-07-31T04:56:04;18.60;99.90
41876;DHT22;27555;50.808;4.402;2023-07-31T04:58:30;18.60;99.90
41876;DHT22;27555;50.808;4.402;2023-07-31T05:00:55;18.60;99.90
41876;DHT22;27555;50.808;4.402;2023-07-31T05:03:21;18.70;99.90
41876;DHT22;27555;50.808;4.402;2023-07-31T05:05:46;18.50;99.90
41876;DHT22;27555;50.808;4.402;2023-07-31T05:08:12;18.40;99.90
41876;DHT22;27555;50.808;4.402;2023-07-31T05:10:38;18.50;99.90
41876;DHT22;27555;50.808;4.402;2023-07-31T05:13:03;18.30;99.90
41876;DHT22;27555;50.808;4.402;2023-07-31T05:15:29;18.40;99.90
41876;DHT22;27555;50.808;4.402;2023-07-31T05:17:55;18.20;99.90
41876;DHT22;27555;50.808;4.402;2023-07-31T05:20:21;18.20;99.90
41876;DHT22;27555;50.808;4.402;2023-07-31T05:22:47;18.30;99.90
41876;DHT22;27555;50.808;4.402;2023-07-31T05:25:12;18.20;99.90
41876;DHT22;27555;50.808;4.402;2023-07-31T05:27:38;18.00;99.90
41876;DHT22;27555;50.808;4.402;2023-07-31T05:30:04;18.10;99.90
41876;DHT22;27555;50.808;4.402;2023-07-31T05:32:30;18.10;99.90
41876;DHT22;27555;50.808;4.402;2023-07-31T05:34:56;18.20;99.90
41876;DHT22;27555;50.808;4.402;2023-07-31T05:37:21;18.20;99.90
41876;DHT22;27555;50.808;4.402;2023-07-31T05:39:47;18.60;99.90
41876;DHT22;27555;50.808;4.402;2023-07-31T05:42:13;18.00;99.90
41876;DHT22;27555;50.808;4.402;2023-07-31T05:44:38;18.00;99.90
41876;DHT22;27555;50.808;4.402;2023-07-31T05:47:04;18.00;99.90
41876;DHT22;27555;50.808;4.402;2023-07-31T05:49:30;18.00;99.90
41876;DHT22;27555;50.808;4.402;2023-07-31T05:51:55;17.80;99.90
41876;DHT22;27555;50.808;4.402;2023-07-31T05:54:21;17.90;99.90
41876;DHT22;27555;50.808;4.402;2023-07-31T05:56:46;18.10;99.90
41876;DHT22;27555;50.808;4.402;2023-07-31T05:59:12;18.00;99.90
41876;DHT22;27555;50.808;4.402;2023-07-31T06:01:38;18.00;99.90
41876;DHT22;27555;50.808;4.402;2023-07-31T06:04:04;18.10;99.90
41876;DHT22;27555;50.808;4.402;2023-07-31T06:06:30;18.00;99.90
41876;DHT22;27555;50.808;4.402;2023-07-31T06:08:56;18.00;99.90
41876;DHT22;27555;50.808;4.402;2023-07-31T06:11:21;18.10;99.90
41876;DHT22;27555;50.808;4.402;2023-07-31T06:13:47;18.30;99.90
41876;DHT22;27555;50.808;4.402;2023-07-31T06:16:15;18.20;99.90
41876;DHT22;27555;50.808;4.402;2023-07-31T06:18:41;18.40;99.90
41876;DHT22;27555;50.808;4.402;2023-07-31T06:21:07;18.50;99.90
41876;DHT22;27555;50.808;4.402;2023-07-31T06:23:33;18.40;99.90
41876;DHT22;27555;50.808;4.402;2023-07-31T06:25:59;18.20;99.90
41876;DHT22;27555;50.808;4.402;2023-07-31T06:28:28;18.10;99.90
41876;DHT22;27555;50.808;4.402;2023-07-31T06:30:54;18.30;99.90
41876;DHT22;27555;50.808;4.402;2023-07-31T06:33:20;18.30;99.90
41876;DHT22;27555;50.808;4.402;2023-07-31T06:35:45;18.30;99.90
41876;DHT22;27555;50.808;4.402;2023-07-31T06:38:11;18.30;99.90
41876;DHT22;27555;50.808;4.402;2023-07-31T06:40:37;18.40;99.90
41876;DHT22;27555;50.808;4.402;2023-07-31T06:43:02;18.40;99.90
41876;DHT22;27555;50.808;4.402;2023-07-31T06:45:34;18.20;99.90
41876;DHT22;27555;50.808;4.402;2023-07-31T06:48:00;18.20;99.90
41876;DHT22;27555;50.808;4.402;2023-07-31T06:50:28;18.30;99.90
41876;DHT22;27555;50.808;4.402;2023-07-31T06:52:54;18.60;99.90
41876;DHT22;27555;50.808;4.402;2023-07-31T06:55:20;18.80;99.90
41876;DHT22;27555;50.808;4.402;2023-07-31T06:57:48;18.90;99.90
41876;DHT22;27555;50.808;4.402;2023-07-31T07:00:14;18.80;99.90
41876;DHT22;27555;50.808;4.402;2023-07-31T07:02:40;18.90;99.90
41876;DHT22;27555;50.808;4.402;2023-07-31T07:05:06;18.90;99.90
41876;DHT22;27555;50.808;4.402;2023-07-31T07:07:32;19.30;99.90
41876;DHT22;27555;50.808;4.402;2023-07-31T07:09:58;19.40;99.90
41876;DHT22;27555;50.808;4.402;2023-07-31T07:12:29;19.50;99.90
41876;DHT22;27555;50.808;4.402;2023-07-31T07:14:55;19.40;99.90
41876;DHT22;27555;50.808;4.402;2023-07-31T07:17:21;19.30;99.90
41876;DHT22;27555;50.808;4.402;2023-07-31T07:19:47;19.50;99.90
41876;DHT22;27555;50.808;4.402;2023-07-31T07:22:13;19.40;99.90
41876;DHT22;27555;50.808;4.402;2023-07-31T07:24:39;19.40;99.90
41876;DHT22;27555;50.808;4.402;2023-07-31T07:27:05;19.50;99.90
41876;DHT22;27555;50.808;4.402;2023-07-31T07:29:30;19.20;99.90
41876;DHT22;27555;50.808;4.402;2023-07-31T07:31:56;19.00;99.90
41876;DHT22;27555;50.808;4.402;2023-07-31T07:34:26;19.10;99.90
41876;DHT22;27555;50.808;4.402;2023-07-31T07:36:52;19.10;99.90
41876;DHT22;27555;50.808;4.402;2023-07-31T07:39:17;19.10;99.90
41876;DHT22;27555;50.808;4.402;2023-07-31T07:41:43;19.00;99.90
41876;DHT22;27555;50.808;4.402;2023-07-31T07:44:09;19.10;99.90
41876;DHT22;27555;50.808;4.402;2023-07-31T07:46:34;19.20;99.90
41876;DHT22;27555;50.808;4.402;2023-07-31T07:49:00;19.20;99.90
41876;DHT22;27555;50.808;4.402;2023-07-31T07:51:25;19.30;99.90
41876;DHT22;27555;50.808;4.402;2023-07-31T07:53:51;19.50;99.90
41876;DHT22;27555;50.808;4.402;2023-07-31T07:56:17;19.40;99.90
41876;DHT22;27555;50.808;4.402;2023-07-31T07:58:42;19.30;99.90
41876;DHT22;27555;50.808;4.402;2023-07-31T08:01:08;19.60;99.90
41876;DHT22;27555;50.808;4.402;2023-07-31T08:03:33;19.50;99.90
41876;DHT22;27555;50.808;4.402;2023-07-31T08:06:00;19.50;99.90
41876;DHT22;27555;50.808;4.402;2023-07-31T08:08:27;19.20;99.90
41876;DHT22;27555;50.808;4.402;2023-07-31T08:10:52;19.30;99.90
41876;DHT22;27555;50.808;4.402;2023-07-31T08:13:18;19.40;99.90
41876;DHT22;27555;50.808;4.402;2023-07-31T08:15:43;19.30;99.90
41876;DHT22;27555;50.808;4.402;2023-07-31T08:18:09;19.30;99.90
41876;DHT22;27555;50.808;4.402;2023-07-31T08:20:37;19.40;99.90
41876;DHT22;27555;50.808;4.402;2023-07-31T08:23:02;19.30;99.90
41876;DHT22;27555;50.808;4.402;2023-07-31T08:25:28;19.50;99.90
41876;DHT22;27555;50.808;4.402;2023-07-31T08:27:53;19.60;99.90
41876;DHT22;27555;50.808;4.402;2023-07-31T08:30:19;19.10;99.90
41876;DHT22;27555;50.808;4.402;2023-07-31T08:32:45;19.10;99.90
41876;DHT22;27555;50.808;4.402;2023-07-31T08:35:10;19.10;99.90
41876;DHT22;27555;50.808;4.402;2023-07-31T08:37:37;19.10;99.90
41876;DHT22;27555;50.808;4.402;2023-07-31T08:40:03;19.10;99.90
41876;DHT22;27555;50.808;4.402;2023-07-31T08:42:29;19.20;99.90
41876;DHT22;27555;50.808;4.402;2023-07-31T08:44:56;19.10;99.90
41876;DHT22;27555;50.808;4.402;2023-07-31T08:47:22;19.00;99.90
41876;DHT22;27555;50.808;4.402;2023-07-31T08:49:49;18.80;99.90
41876;DHT22;27555;50.808;4.402;2023-07-31T08:52:16;18.70;99.90
41876;DHT22;27555;50.808;4.402;2023-07-31T08:54:42;18.90;99.90
41876;DHT22;27555;50.808;4.402;2023-07-31T08:57:07;18.90;99.90
41876;DHT22;27555;50.808;4.402;2023-07-31T08:59:35;19.10;99.90
41876;DHT22;27555;50.808;4.402;2023-07-31T09:02:06;19.10;99.90
41876;DHT22;27555;50.808;4.402;2023-07-31T09:04:33;19.20;99.90
41876;DHT22;27555;50.808;4.402;2023-07-31T09:07:02;19.20;99.90
41876;DHT22;27555;50.808;4.402;2023-07-31T09:09:31;19.20;99.90
41876;DHT22;27555;50.808;4.402;2023-07-31T09:11:58;19.20;99.90
41876;DHT22;27555;50.808;4.402;2023-07-31T09:14:27;19.20;99.90
41876;DHT22;27555;50.808;4.402;2023-07-31T09:16:58;19.40;99.90
41876;DHT22;27555;50.808;4.402;2023-07-31T09:19:33;19.40;99.90
41876;DHT22;27555;50.808;4.402;2023-07-31T09:22:00;19.70;99.90
41876;DHT22;27555;50.808;4.402;2023-07-31T09:24:33;19.70;99.90
41876;DHT22;27555;50.808;4.402;2023-07-31T09:27:00;19.70;99.90
41876;DHT22;27555;50.808;4.402;2023-07-31T09:29:27;19.60;99.90
41876;DHT22;27555;50.808;4.402;2023-07-31T09:31:53;19.50;99.90
41876;DHT22;27555;50.808;4.402;2023-07-31T09:34:20;19.60;99.90
41876;DHT22;27555;50.808;4.402;2023-07-31T09:36:53;19.80;99.90
41876;DHT22;27555;50.808;4.402;2023-07-31T09:39:18;19.70;99.90
41876;DHT22;27555;50.808;4.402;2023-07-31T09:41:53;19.60;99.90
41876;DHT22;27555;50.808;4.402;2023-07-31T09:44:19;19.60;99.90
41876;DHT22;27555;50.808;4.402;2023-07-31T09:46:45;19.30;99.90
41876;DHT22;27555;50.808;4.402;2023-07-31T09:49:11;19.30;99.90
41876;DHT22;27555;50.808;4.402;2023-07-31T09:51:39;19.40;99.90
41876;DHT22;27555;50.808;4.402;2023-07-31T09:54:12;19.60;99.90
41876;DHT22;27555;50.808;4.402;2023-07-31T09:56:43;19.60;99.90
41876;DHT22;27555;50.808;4.402;2023-07-31T09:59:15;19.80;99.90
41876;DHT22;27555;50.808;4.402;2023-07-31T10:01:41;19.60;99.90
41876;DHT22;27555;50.808;4.402;2023-07-31T10:04:10;19.80;99.90
41876;DHT22;27555;50.808;4.402;2023-07-31T10:06:37;19.90;99.90
41876;DHT22;27555;50.808;4.402;2023-07-31T10:09:06;20.00;99.90
41876;DHT22;27555;50.808;4.402;2023-07-31T10:11:42;20.00;99.90
41876;DHT22;27555;50.808;4.402;2023-07-31T10:14:09;20.00;99.90
41876;DHT22;27555;50.808;4.402;2023-07-31T10:16:38;19.90;99.90
41876;DHT22;27555;50.808;4.402;2023-07-31T10:19:05;20.00;99.90
41876;DHT22;27555;50.808;4.402;2023-07-31T10:21:31;20.10;99.90
41876;DHT22;27555;50.808;4.402;2023-07-31T10:24:02;20.30;99.90
41876;DHT22;27555;50.808;4.402;2023-07-31T10:26:29;20.60;99.90
41876;DHT22;27555;50.808;4.402;2023-07-31T10:28:56;20.40;99.90
41876;DHT22;27555;50.808;4.402;2023-07-31T10:31:22;20.60;99.90
41876;DHT22;27555;50.808;4.402;2023-07-31T10:33:49;20.80;99.90
41876;DHT22;27555;50.808;4.402;2023-07-31T10:36:18;20.70;99.90
41876;DHT22;27555;50.808;4.402;2023-07-31T10:38:44;20.80;99.90
41876;DHT22;27555;50.808;4.402;2023-07-31T10:41:10;20.60;99.90
41876;DHT22;27555;50.808;4.402;2023-07-31T10:43:37;20.50;99.90
41876;DHT22;27555;50.808;4.402;2023-07-31T10:46:12;20.30;99.90
41876;DHT22;27555;50.808;4.402;2023-07-31T10:48:39;20.30;99.90
41876;DHT22;27555;50.808;4.402;2023-07-31T10:51:12;20.50;99.90
41876;DHT22;27555;50.808;4.402;2023-07-31T10:53:39;20.50;99.90
41876;DHT22;27555;50.808;4.402;2023-07-31T10:56:09;20.80;99.90
41876;DHT22;27555;50.808;4.402;2023-07-31T10:58:44;20.80;99.90
41876;DHT22;27555;50.808;4.402;2023-07-31T11:01:10;20.80;99.90
41876;DHT22;27555;50.808;4.402;2023-07-31T11:03:43;20.70;99.90
41876;DHT22;27555;50.808;4.402;2023-07-31T11:06:10;20.70;99.90
41876;DHT22;27555;50.808;4.402;2023-07-31T11:08:42;20.70;99.90
41876;DHT22;27555;50.808;4.402;2023-07-31T11:11:10;20.90;99.90
41876;DHT22;27555;50.808;4.402;2023-07-31T11:13:50;21.00;99.90
41876;DHT22;27555;50.808;4.402;2023-07-31T11:16:24;21.20;99.90
41876;DHT22;27555;50.808;4.402;2023-07-31T11:18:51;21.30;99.90
41876;DHT22;27555;50.808;4.402;2023-07-31T11:21:21;21.30;99.90
41876;DHT22;27555;50.808;4.402;2023-07-31T11:23:51;21.40;99.90
41876;DHT22;27555;50.808;4.402;2023-07-31T11:26:17;21.30;99.90
41876;DHT22;27555;50.808;4.402;2023-07-31T11:28:43;21.20;99.90
41876;DHT22;27555;50.808;4.402;2023-07-31T11:31:11;21.30;99.90
41876;DHT22;27555;50.808;4.402;2023-07-31T11:33:37;21.40;99.90
41876;DHT22;27555;50.808;4.402;2023-07-31T11:36:03;21.40;99.90
41876;DHT22;27555;50.808;4.402;2023-07-31T11:38:30;21.30;99.90
41876;DHT22;27555;50.808;4.402;2023-07-31T11:40:57;21.50;99.90
41876;DHT22;27555;50.808;4.402;2023-07-31T11:43:23;21.60;99.90
41876;DHT22;27555;50.808;4.402;2023-07-31T11:45:54;21.50;99.90
41876;DHT22;27555;50.808;4.402;2023-07-31T11:48:25;21.30;99.90
41876;DHT22;27555;50.808;4.402;2023-07-31T11:50:59;21.20;99.90
41876;DHT22;27555;50.808;4.402;2023-07-31T11:56:07;21.30;99.90
41876;DHT22;27555;50.808;4.402;2023-07-31T11:58:35;21.40;99.90
41876;DHT22;27555;50.808;4.402;2023-07-31T12:01:01;21.40;99.90
41876;DHT22;27555;50.808;4.402;2023-07-31T12:03:27;21.30;99.90
41876;DHT22;27555;50.808;4.402;2023-07-31T12:05:53;21.10;99.90
41876;DHT22;27555;50.808;4.402;2023-07-31T12:08:21;21.40;99.90
41876;DHT22;27555;50.808;4.402;2023-07-31T12:10:50;21.70;99.90
41876;DHT22;27555;50.808;4.402;2023-07-31T12:13:25;22.00;99.90
41876;DHT22;27555;50.808;4.402;2023-07-31T12:15:59;22.10;99.90
41876;DHT22;27555;50.808;4.402;2023-07-31T12:18:26;22.10;99.90
41876;DHT22;27555;50.808;4.402;2023-07-31T12:20:57;21.90;99.90
41876;DHT22;27555;50.808;4.402;2023-07-31T12:23:25;22.00;99.90
41876;DHT22;27555;50.808;4.402;2023-07-31T12:26:20;21.80;99.90
41876;DHT22;27555;50.808;4.402;2023-07-31T12:28:47;21.80;99.90
41876;DHT22;27555;50.808;4.402;2023-07-31T12:31:20;21.60;99.90
41876;DHT22;27555;50.808;4.402;2023-07-31T12:33:47;21.50;99.90
41876;DHT22;27555;50.808;4.402;2023-07-31T12:36:15;21.50;99.90
41876;DHT22;27555;50.808;4.402;2023-07-31T12:38:41;21.60;99.90
41876;DHT22;27555;50.808;4.402;2023-07-31T12:41:08;21.60;99.90
41876;DHT22;27555;50.808;4.402;2023-07-31T12:43:34;21.60;99.90
41876;DHT22;27555;50.808;4.402;2023-07-31T12:46:00;21.70;99.90
41876;DHT22;27555;50.808;4.402;2023-07-31T12:48:26;21.80;99.90
41876;DHT22;27555;50.808;4.402;2023-07-31T12:50:51;21.90;99.90
41876;DHT22;27555;50.808;4.402;2023-07-31T12:53:17;21.80;99.90
41876;DHT22;27555;50.808;4.402;2023-07-31T12:55:42;21.70;99.90
41876;DHT22;27555;50.808;4.402;2023-07-31T12:58:08;21.40;99.90
41876;DHT22;27555;50.808;4.402;2023-07-31T13:00:34;21.30;99.90
41876;DHT22;27555;50.808;4.402;2023-07-31T13:03:00;21.20;99.90
41876;DHT22;27555;50.808;4.402;2023-07-31T13:05:27;21.20;99.90
41876;DHT22;27555;50.808;4.402;2023-07-31T13:07:53;21.20;99.90
41876;DHT22;27555;50.808;4.402;2023-07-31T13:10:19;21.00;99.90
41876;DHT22;27555;50.808;4.402;2023-07-31T13:12:44;20.80;99.90
41876;DHT22;27555;50.808;4.402;2023-07-31T13:15:10;20.70;99.90
41876;DHT22;27555;50.808;4.402;2023-07-31T13:17:36;20.50;99.90
41876;DHT22;27555;50.808;4.402;2023-07-31T13:20:02;20.60;99.90
41876;DHT22;27555;50.808;4.402;2023-07-31T13:22:28;20.60;99.90
41876;DHT22;27555;50.808;4.402;2023-07-31T13:24:54;20.50;99.90
41876;DHT22;27555;50.808;4.402;2023-07-31T13:27:20;20.20;99.90
41876;DHT22;27555;50.808;4.402;2023-07-31T13:29:50;20.10;99.90
41876;DHT22;27555;50.808;4.402;2023-07-31T13:32:17;20.00;99.90
41876;DHT22;27555;50.808;4.402;2023-07-31T13:34:43;19.90;99.90
41876;DHT22;27555;50.808;4.402;2023-07-31T13:37:09;20.00;99.90
41876;DHT22;27555;50.808;4.402;2023-07-31T13:39:34;19.90;99.90
41876;DHT22;27555;50.808;4.402;2023-07-31T13:42:01;20.00;99.90
41876;DHT22;27555;50.808;4.402;2023-07-31T13:44:27;19.70;99.90
41876;DHT22;27555;50.808;4.402;2023-07-31T13:46:53;19.70;99.90
41876;DHT22;27555;50.808;4.402;2023-07-31T13:49:18;19.90;99.90
41876;DHT22;27555;50.808;4.402;2023-07-31T13:51:44;20.00;99.90
41876;DHT22;27555;50.808;4.402;2023-07-31T13:54:09;20.00;99.90
41876;DHT22;27555;50.808;4.402;2023-07-31T13:56:37;19.90;99.90
41876;DHT22;27555;50.808;4.402;2023-07-31T13:59:02;19.70;99.90
41876;DHT22;27555;50.808;4.402;2023-07-31T14:01:28;19.60;99.90
41876;DHT22;27555;50.808;4.402;2023-07-31T14:03:53;19.50;99.90
41876;DHT22;27555;50.808;4.402;2023-07-31T14:06:19;19.60;99.90
41876;DHT22;27555;50.808;4.402;2023-07-31T14:08:45;19.70;99.90
41876;DHT22;27555;50.808;4.402;2023-07-31T14:11:11;19.60;99.90
41876;DHT22;27555;50.808;4.402;2023-07-31T14:13:36;19.60;99.90
41876;DHT22;27555;50.808;4.402;2023-07-31T14:16:02;19.70;99.90
41876;DHT22;27555;50.808;4.402;2023-07-31T14:18:27;19.90;99.90
41876;DHT22;27555;50.808;4.402;2023-07-31T14:20:53;19.80;99.90
41876;DHT22;27555;50.808;4.402;2023-07-31T14:23:19;19.90;99.90
41876;DHT22;27555;50.808;4.402;2023-07-31T14:25:45;19.90;99.90
41876;DHT22;27555;50.808;4.402;2023-07-31T14:28:11;19.80;99.90
41876;DHT22;27555;50.808;4.402;2023-07-31T14:30:37;19.80;99.90
41876;DHT22;27555;50.808;4.402;2023-07-31T14:33:02;19.80;99.90
41876;DHT22;27555;50.808;4.402;2023-07-31T14:35:28;20.00;99.90
41876;DHT22;27555;50.808;4.402;2023-07-31T14:37:54;20.00;99.90
41876;DHT22;27555;50.808;4.402;2023-07-31T14:40:19;20.10;99.90
41876;DHT22;27555;50.808;4.402;2023-07-31T14:42:45;20.00;99.90
41876;DHT22;27555;50.808;4.402;2023-07-31T14:45:11;20.00;99.90
41876;DHT22;27555;50.808;4.402;2023-07-31T14:47:36;20.00;99.90
41876;DHT22;27555;50.808;4.402;2023-07-31T14:50:03;20.10;99.90
41876;DHT22;27555;50.808;4.402;2023-07-31T14:52:28;20.00;99.90
41876;DHT22;27555;50.808;4.402;2023-07-31T14:54:54;20.00;99.90
41876;DHT22;27555;50.808;4.402;2023-07-31T14:57:20;20.10;99.90
41876;DHT22;27555;50.808;4.402;2023-07-31T14:59:46;20.10;99.90
41876;DHT22;27555;50.808;4.402;2023-07-31T15:02:12;20.00;99.90
41876;DHT22;27555;50.808;4.402;2023-07-31T15:04:37;19.90;99.90
41876;DHT22;27555;50.808;4.402;2023-07-31T15:07:03;19.90;99.90
41876;DHT22;27555;50.808;4.402;2023-07-31T15:09:29;19.80;99.90
41876;DHT22;27555;50.808;4.402;2023-07-31T15:11:56;19.60;99.90
41876;DHT22;27555;50.808;4.402;2023-07-31T15:14:23;19.60;99.90
41876;DHT22;27555;50.808;4.402;2023-07-31T15:16:48;19.70;99.90
41876;DHT22;27555;50.808;4.402;2023-07-31T15:19:14;19.60;99.90
41876;DHT22;27555;50.808;4.402;2023-07-31T15:21:40;19.40;99.90
41876;DHT22;27555;50.808;4.402;2023-07-31T15:24:05;19.40;99.90
41876;DHT22;27555;50.808;4.402;2023-07-31T15:26:31;19.40;99.90
41876;DHT22;27555;50.808;4.402;2023-07-31T15:29:02;19.40;99.90
41876;DHT22;27555;50.808;4.402;2023-07-31T15:31:31;19.40;99.90